Mercer Island, Washington
Current Conditions -  °F | °C
As of 4:53 PM on Saturday 25 Oct 2014 (Local Time) from KBFI Reporting Station
Overcast Overcast  
Wind Chill: 64°   Ceiling: 6000
Heat Index: 64°   Visibility: 10mi
Dew Point: 49°   Wind: 21mph
Humidity: 58%   Direction: 150°SSE
Pressure: 29.27"   Gusts: 28mph
Location:  47.58°N, 122.21°W
Report Text: KBFI 252353Z 15018G24KT 10SM BKN060 OVC075 18/09 A2927 RMK AO2 RAE16 SLP911 P0001 60013 T01780094 10178 20139 56023
Loading
Personal Weather Stations






























Interactive Weather Map
Tropical Storm Tracking
New forecast layout! Learn more

10-Day Weather Forecast

Advertisements
Track Severe Weather on mobile